Time;durP1;ratioP1;P1;durP2;ratioP2;P2;SDS_P1;SDS_P2;PMS_P1;PMS_P2;Temp;Humidity;BMP_temperature;BMP_pressure;BME280_temperature;BME280_humidity;BME280_pressure;Samples;Min_cycle;Max_cycle;Signal;HPM_P1;HPM_P2
2023/09/25 00:02:22;;;;;;;2.15;1.30;;;14.70;99.90;;;;;;5033185;28;20223;-71
2023/09/25 00:04:50;;;;;;;1.73;1.25;;;14.60;99.90;;;;;;5037133;28;20253;-71
2023/09/25 00:07:16;;;;;;;1.20;1.00;;;14.60;99.90;;;;;;5071868;28;20173;-69
2023/09/25 00:09:42;;;;;;;2.15;1.20;;;14.50;99.90;;;;;;5043559;28;20203;-72
2023/09/25 00:12:08;;;;;;;1.55;1.15;;;14.50;99.90;;;;;;5071702;28;20186;-71
2023/09/25 00:14:35;;;;;;;2.40;1.15;;;14.40;99.90;;;;;;5032036;28;20265;-71
2023/09/25 00:17:03;;;;;;;2.75;1.33;;;14.40;99.90;;;;;;5039659;28;20201;-72
2023/09/25 00:19:32;;;;;;;1.85;1.30;;;14.40;99.90;;;;;;5069856;28;20173;-69
2023/09/25 00:21:57;;;;;;;1.88;1.30;;;14.30;99.90;;;;;;5040428;28;20189;-72
2023/09/25 00:24:28;;;;;;;1.33;1.20;;;14.30;99.90;;;;;;5039479;28;20189;-69
2023/09/25 00:26:56;;;;;;;1.80;1.45;;;14.20;99.90;;;;;;5060960;28;20164;-71
2023/09/25 00:29:22;;;;;;;1.58;1.35;;;14.20;99.90;;;;;;5034208;28;20194;-71
2023/09/25 00:31:47;;;;;;;1.80;1.10;;;14.20;99.90;;;;;;5054146;28;20203;-71
2023/09/25 00:34:15;;;;;;;1.80;1.50;;;14.10;99.90;;;;;;5040664;28;20181;-72
2023/09/25 00:36:41;;;;;;;2.53;1.30;;;14.10;99.90;;;;;;5040864;28;20227;-71
2023/09/25 00:39:09;;;;;;;1.95;1.10;;;14.10;99.90;;;;;;5049090;28;20192;-68
2023/09/25 00:41:34;;;;;;;1.70;1.30;;;14.10;99.90;;;;;;5066664;28;20193;-72
2023/09/25 00:44:00;;;;;;;1.50;1.17;;;14.00;99.90;;;;;;5036887;28;20244;-71
2023/09/25 00:46:28;;;;;;;1.65;1.10;;;14.00;99.90;;;;;;5030590;28;20264;-71
2023/09/25 00:48:56;;;;;;;1.77;1.08;;;14.00;99.90;;;;;;5025400;28;20240;-71
2023/09/25 00:51:25;;;;;;;1.30;1.02;;;13.90;99.90;;;;;;5036656;28;20181;-71
2023/09/25 00:53:51;;;;;;;2.00;1.10;;;13.90;99.90;;;;;;5073147;28;20178;-72
2023/09/25 00:56:17;;;;;;;1.60;1.20;;;13.90;99.90;;;;;;5046242;28;20247;-71
2023/09/25 00:58:49;;;;;;;2.13;1.20;;;13.90;99.90;;;;;;5023583;28;20201;-69
2023/09/25 01:01:17;;;;;;;1.60;1.10;;;13.90;99.90;;;;;;5072252;28;20203;-70
2023/09/25 01:03:42;;;;;;;2.28;1.13;;;13.90;99.90;;;;;;5047071;28;20249;-72
2023/09/25 01:06:08;;;;;;;2.28;1.13;;;14.00;99.90;;;;;;5040641;28;20185;-71
2023/09/25 01:08:33;;;;;;;1.58;1.10;;;14.00;99.90;;;;;;5038054;28;20189;-71
2023/09/25 01:11:02;;;;;;;3.30;1.38;;;13.90;99.90;;;;;;5041312;28;20196;-72
2023/09/25 01:13:28;;;;;;;1.30;1.10;;;13.90;99.90;;;;;;5040883;28;20235;-73
2023/09/25 01:15:56;;;;;;;1.67;1.20;;;13.90;99.90;;;;;;5040435;28;20189;-72
2023/09/25 01:18:24;;;;;;;2.67;1.10;;;13.90;99.90;;;;;;5038571;28;20181;-69
2023/09/25 01:20:50;;;;;;;1.60;1.15;;;14.00;99.90;;;;;;5039638;28;20208;-70
2023/09/25 01:23:18;;;;;;;2.03;1.10;;;14.00;99.90;;;;;;5039112;28;20295;-70
2023/09/25 01:25:46;;;;;;;1.52;1.02;;;14.00;99.90;;;;;;5041062;28;20178;-70
2023/09/25 01:28:11;;;;;;;1.67;1.02;;;14.00;99.90;;;;;;5036718;28;20177;-71
2023/09/25 01:30:39;;;;;;;2.42;1.42;;;14.00;99.90;;;;;;5038550;28;20208;-73
2023/09/25 01:33:05;;;;;;;2.10;1.30;;;14.00;99.90;;;;;;5039138;28;20172;-70
2023/09/25 01:35:30;;;;;;;1.83;1.20;;;14.00;99.90;;;;;;5043041;28;20181;-72
2023/09/25 01:38:00;;;;;;;1.63;1.10;;;13.90;99.90;;;;;;5041091;28;20222;-71
2023/09/25 01:40:28;;;;;;;1.65;1.05;;;14.00;99.90;;;;;;5035711;28;20244;-68
2023/09/25 01:42:56;;;;;;;1.77;1.35;;;14.00;99.90;;;;;;5030494;28;20201;-70
2023/09/25 01:45:22;;;;;;;2.45;1.20;;;14.00;99.90;;;;;;5050178;28;20188;-71
2023/09/25 01:47:50;;;;;;;1.83;1.13;;;14.00;99.90;;;;;;5071416;28;20181;-68
2023/09/25 01:50:23;;;;;;;1.45;1.13;;;14.00;99.90;;;;;;5048892;28;20343;-70
2023/09/25 01:52:55;;;;;;;1.75;1.00;;;14.00;99.90;;;;;;5037479;28;20189;-70
2023/09/25 01:55:22;;;;;;;1.30;1.20;;;13.90;99.90;;;;;;5038157;28;20235;-71
2023/09/25 01:57:52;;;;;;;1.40;1.10;;;13.90;99.90;;;;;;5037892;28;20176;-71
2023/09/25 02:00:18;;;;;;;1.25;1.10;;;13.90;99.90;;;;;;5037538;28;20186;-67
2023/09/25 02:02:47;;;;;;;2.22;1.00;;;13.80;99.90;;;;;;5037826;28;20440;-71
2023/09/25 02:05:13;;;;;;;1.40;1.10;;;13.80;99.90;;;;;;5040565;28;20170;-71
2023/09/25 02:07:38;;;;;;;1.40;1.10;;;13.70;99.90;;;;;;5039430;28;20179;-70
2023/09/25 02:10:07;;;;;;;1.27;0.95;;;13.70;99.90;;;;;;5069218;28;20193;-70
2023/09/25 02:12:33;;;;;;;1.58;1.00;;;13.70;99.90;;;;;;5036864;28;20189;-71
2023/09/25 02:15:00;;;;;;;1.83;1.10;;;13.70;99.90;;;;;;5038246;28;20197;-72
2023/09/25 02:17:31;;;;;;;1.77;1.17;;;13.70;99.90;;;;;;5038451;28;20251;-72
2023/09/25 02:20:20;;;;;;;1.70;1.25;;;13.70;99.90;;;;;;5038920;28;20184;-71
2023/09/25 02:22:52;;;;;;;2.03;1.35;;;13.70;99.90;;;;;;5034211;28;20212;-68
2023/09/25 02:25:20;;;;;;;1.35;1.00;;;13.70;99.90;;;;;;5041429;28;20196;-71
2023/09/25 02:27:48;;;;;;;1.17;1.08;;;13.70;99.90;;;;;;5038582;28;20184;-71
2023/09/25 02:30:14;;;;;;;2.85;1.20;;;13.70;99.90;;;;;;5040367;28;20219;-69
2023/09/25 02:32:43;;;;;;;2.08;1.10;;;13.70;99.90;;;;;;5072703;28;20173;-70
2023/09/25 02:35:12;;;;;;;2.13;1.15;;;13.70;99.90;;;;;;5038003;28;20185;-72
2023/09/25 02:37:40;;;;;;;1.40;1.10;;;13.70;99.90;;;;;;5069007;28;20238;-72
2023/09/25 02:40:13;;;;;;;1.48;1.10;;;13.70;99.90;;;;;;5039029;28;20207;-72
2023/09/25 02:42:44;;;;;;;1.30;1.10;;;13.80;99.90;;;;;;5040121;28;20220;-72
2023/09/25 02:45:10;;;;;;;2.10;1.30;;;13.80;99.90;;;;;;5036684;28;20271;-72
2023/09/25 02:47:38;;;;;;;1.98;1.23;;;13.80;99.90;;;;;;5034491;28;20300;-73
2023/09/25 02:50:05;;;;;;;1.30;1.08;;;13.80;99.90;;;;;;5037650;28;20204;-70
2023/09/25 02:52:31;;;;;;;2.40;1.20;;;13.80;99.90;;;;;;5038557;28;20205;-65
2023/09/25 02:54:59;;;;;;;2.03;1.15;;;13.80;99.90;;;;;;5038291;28;20185;-65
2023/09/25 02:57:25;;;;;;;2.20;1.20;;;13.80;99.90;;;;;;5066510;28;20246;-65
2023/09/25 02:59:50;;;;;;;1.58;1.20;;;13.80;99.90;;;;;;5038174;28;20229;-65
2023/09/25 03:02:18;;;;;;;1.88;1.27;;;13.80;99.90;;;;;;5039140;28;20197;-65
2023/09/25 03:04:44;;;;;;;1.83;1.15;;;13.70;99.90;;;;;;5037565;28;20189;-65
2023/09/25 03:07:10;;;;;;;1.80;1.30;;;13.70;99.90;;;;;;5070425;28;20266;-65
2023/09/25 03:09:35;;;;;;;1.27;1.17;;;13.70;99.90;;;;;;5036450;28;20261;-65
2023/09/25 03:12:03;;;;;;;2.65;1.30;;;13.70;99.90;;;;;;5036986;28;20188;-65
2023/09/25 03:14:29;;;;;;;1.40;1.05;;;13.60;99.90;;;;;;5038526;28;20181;-65
2023/09/25 03:16:55;;;;;;;1.88;1.20;;;13.60;99.90;;;;;;5037478;28;20272;-65
2023/09/25 03:19:20;;;;;;;2.00;1.38;;;13.60;99.90;;;;;;5038121;28;20177;-66
2023/09/25 03:21:46;;;;;;;1.60;1.10;;;13.50;99.90;;;;;;5037438;28;20207;-66
2023/09/25 03:24:14;;;;;;;2.22;1.15;;;13.50;99.90;;;;;;5021103;28;20205;-66
2023/09/25 03:26:40;;;;;;;1.90;1.30;;;13.40;99.90;;;;;;5070288;28;20199;-67
2023/09/25 03:29:06;;;;;;;1.52;1.13;;;13.30;99.90;;;;;;5037476;28;20202;-67
2023/09/25 03:31:34;;;;;;;1.35;1.10;;;13.30;99.90;;;;;;5037724;28;20276;-66
2023/09/25 03:34:00;;;;;;;1.23;1.10;;;13.20;99.90;;;;;;5037615;28;20264;-67
2023/09/25 03:36:28;;;;;;;1.77;1.10;;;13.20;99.90;;;;;;5036736;28;20215;-66
2023/09/25 03:38:57;;;;;;;1.13;1.00;;;13.20;99.90;;;;;;5051207;28;20193;-67
2023/09/25 03:41:22;;;;;;;1.88;1.20;;;13.10;99.90;;;;;;5036898;28;20219;-67
2023/09/25 03:43:50;;;;;;;3.35;1.60;;;13.10;99.90;;;;;;5036876;28;20260;-66
2023/09/25 03:46:18;;;;;;;1.65;1.23;;;13.10;99.90;;;;;;5035317;28;20181;-66
2023/09/25 03:48:45;;;;;;;1.75;1.20;;;13.10;99.90;;;;;;5037344;28;20170;-66
2023/09/25 03:51:11;;;;;;;1.80;1.13;;;13.00;99.90;;;;;;5035182;28;20186;-67
2023/09/25 03:53:37;;;;;;;1.10;1.00;;;13.00;99.90;;;;;;5033632;28;20174;-66
2023/09/25 03:56:02;;;;;;;2.67;1.30;;;13.00;99.90;;;;;;5069130;28;20191;-66
2023/09/25 03:58:28;;;;;;;1.40;1.05;;;12.90;99.90;;;;;;5069872;28;20261;-66
2023/09/25 04:00:57;;;;;;;1.27;1.00;;;13.00;99.90;;;;;;5033785;28;20193;-67
2023/09/25 04:03:23;;;;;;;1.95;1.20;;;12.90;99.90;;;;;;5068876;28;20205;-66
2023/09/25 04:05:50;;;;;;;1.17;1.08;;;12.90;99.90;;;;;;5067792;28;20183;-66
2023/09/25 04:08:16;;;;;;;1.65;1.20;;;12.90;99.90;;;;;;5036798;28;20185;-66
2023/09/25 04:10:43;;;;;;;3.15;1.10;;;12.90;99.90;;;;;;5037088;28;20185;-66
2023/09/25 04:13:08;;;;;;;1.95;1.30;;;12.90;99.90;;;;;;5034942;28;20213;-66
2023/09/25 04:15:34;;;;;;;1.20;0.90;;;12.80;99.90;;;;;;5035382;28;20189;-66
2023/09/25 04:18:02;;;;;;;1.40;1.00;;;12.80;99.90;;;;;;5035851;28;20196;-67
2023/09/25 04:20:32;;;;;;;0.98;0.88;;;12.80;99.90;;;;;;5039418;28;20192;-66
2023/09/25 04:22:57;;;;;;;1.60;0.93;;;12.80;99.90;;;;;;5040759;28;20221;-66
2023/09/25 04:25:24;;;;;;;1.40;1.00;;;12.90;99.90;;;;;;5057674;28;20296;-65
2023/09/25 04:27:53;;;;;;;2.03;1.42;;;12.80;99.90;;;;;;5037301;28;20269;-66
2023/09/25 04:30:23;;;;;;;1.92;1.10;;;12.80;99.90;;;;;;5037509;28;20177;-66
2023/09/25 04:32:49;;;;;;;1.65;1.30;;;12.80;99.90;;;;;;5039548;28;20181;-66
2023/09/25 04:35:16;;;;;;;2.08;1.10;;;12.80;99.90;;;;;;5034345;28;20174;-67
2023/09/25 04:37:42;;;;;;;2.40;1.08;;;12.80;99.90;;;;;;5033414;28;20241;-66
2023/09/25 04:40:21;;;;;;;1.95;1.20;;;12.70;99.90;;;;;;5038760;28;20181;-67
2023/09/25 04:42:47;;;;;;;1.98;1.25;;;12.80;99.90;;;;;;5052934;28;20209;-66
2023/09/25 04:45:13;;;;;;;10.68;4.00;;;12.80;99.90;;;;;;5036461;28;20292;-68
2023/09/25 04:47:42;;;;;;;4.35;2.40;;;12.80;99.90;;;;;;5083410;28;20205;-68
2023/09/25 04:50:11;;;;;;;5.72;2.28;;;12.70;99.90;;;;;;5047357;28;20193;-68
2023/09/25 04:52:40;;;;;;;4.35;2.22;;;12.70;99.90;;;;;;5072358;28;20182;-67
2023/09/25 04:55:10;;;;;;;2.05;1.63;;;12.70;99.90;;;;;;5040153;28;20217;-68
2023/09/25 04:57:42;;;;;;;2.28;1.60;;;12.70;99.90;;;;;;5047802;28;20180;-67
2023/09/25 05:02:48;;;;;;;2.90;1.40;;;12.70;99.90;;;;;;5061247;28;20205;-68
2023/09/25 05:05:15;;;;;;;2.85;1.40;;;12.70;99.90;;;;;;5020795;28;20170;-67
2023/09/25 05:07:49;;;;;;;1.95;1.33;;;12.70;99.90;;;;;;5066028;28;20201;-68
2023/09/25 05:11:06;;;;;;;2.38;1.27;;;12.60;99.90;;;;;;5039781;28;20196;-68
2023/09/25 05:13:33;;;;;;;1.50;1.20;;;12.60;99.90;;;;;;5045526;28;20271;-66
2023/09/25 05:16:00;;;;;;;2.05;1.60;;;12.60;99.90;;;;;;5039457;28;20192;-66
2023/09/25 05:18:29;;;;;;;2.33;1.63;;;12.50;99.90;;;;;;5041271;28;20185;-66
2023/09/25 05:20:56;;;;;;;2.05;1.40;;;12.70;99.90;;;;;;5040485;28;20303;-66
2023/09/25 05:23:21;;;;;;;2.05;1.20;;;12.50;99.90;;;;;;5042983;28;20193;-66
2023/09/25 05:25:50;;;;;;;2.17;1.40;;;12.50;99.90;;;;;;5041324;28;20413;-67
2023/09/25 05:28:15;;;;;;;5.38;3.63;;;12.50;99.90;;;;;;5039042;28;20235;-67
2023/09/25 05:30:41;;;;;;;5.35;3.67;;;12.50;99.90;;;;;;5039288;28;20161;-66
2023/09/25 05:33:07;;;;;;;6.63;4.30;;;12.40;99.90;;;;;;5068604;28;20170;-66
2023/09/25 05:35:34;;;;;;;3.50;2.70;;;12.40;99.90;;;;;;5073932;28;20188;-68
2023/09/25 05:38:00;;;;;;;2.63;2.08;;;12.40;99.90;;;;;;5041510;28;20295;-67
2023/09/25 05:40:26;;;;;;;3.90;3.28;;;12.40;99.90;;;;;;5040944;28;20177;-66
2023/09/25 05:42:52;;;;;;;10.15;7.72;;;12.50;99.90;;;;;;5039532;28;20239;-66
2023/09/25 05:45:23;;;;;;;6.13;5.00;;;12.50;99.90;;;;;;5038470;28;20174;-65
2023/09/25 05:47:48;;;;;;;4.15;3.42;;;12.50;99.90;;;;;;5054456;28;20161;-65
2023/09/25 05:50:14;;;;;;;4.30;2.80;;;12.50;99.90;;;;;;5048598;28;20193;-65
2023/09/25 05:52:42;;;;;;;3.38;2.70;;;12.50;99.90;;;;;;5038547;28;20217;-64
2023/09/25 05:55:11;;;;;;;3.17;2.08;;;12.50;99.90;;;;;;5034129;28;20210;-65
2023/09/25 05:57:37;;;;;;;3.05;1.80;;;12.50;99.90;;;;;;5037381;28;20184;-65
2023/09/25 06:00:13;;;;;;;3.08;1.70;;;12.60;99.90;;;;;;5066571;28;20189;-65
2023/09/25 06:02:40;;;;;;;2.55;1.77;;;12.60;99.90;;;;;;5036594;28;20198;-66
2023/09/25 06:05:06;;;;;;;2.20;1.80;;;12.60;99.90;;;;;;5034887;28;20224;-66
2023/09/25 06:07:32;;;;;;;6.22;5.63;;;12.60;99.90;;;;;;5038066;28;20166;-66
2023/09/25 06:09:58;;;;;;;6.70;5.45;;;12.60;99.90;;;;;;5038233;28;20174;-67
2023/09/25 06:12:26;;;;;;;4.25;3.00;;;12.70;99.90;;;;;;5048784;28;20234;-66
2023/09/25 06:14:52;;;;;;;3.15;2.50;;;12.70;99.90;;;;;;5047075;28;20192;-66
2023/09/25 06:17:18;;;;;;;4.20;2.50;;;12.70;99.90;;;;;;5039668;28;20202;-66
2023/09/25 06:19:43;;;;;;;2.67;2.10;;;12.80;99.90;;;;;;5073298;28;20254;-65
2023/09/25 06:22:11;;;;;;;3.45;1.90;;;12.90;99.90;;;;;;5038061;28;20240;-66
2023/09/25 06:24:37;;;;;;;2.13;1.80;;;12.90;99.90;;;;;;5050084;28;20208;-65
2023/09/25 06:27:03;;;;;;;2.28;1.92;;;13.00;99.90;;;;;;5058013;28;20211;-66
2023/09/25 06:29:28;;;;;;;2.83;1.55;;;13.00;99.90;;;;;;5034778;28;20174;-65
2023/09/25 06:31:54;;;;;;;2.60;1.52;;;13.00;99.90;;;;;;5039294;28;20178;-66
2023/09/25 06:34:19;;;;;;;1.98;1.60;;;13.10;99.90;;;;;;5037607;28;20205;-66
2023/09/25 06:36:45;;;;;;;1.70;1.60;;;13.20;99.90;;;;;;5040208;28;20185;-65
2023/09/25 06:39:13;;;;;;;1.90;1.55;;;13.20;99.90;;;;;;5038427;28;20304;-66
2023/09/25 06:41:39;;;;;;;1.85;1.52;;;13.20;99.90;;;;;;5037343;28;20231;-66
2023/09/25 06:44:05;;;;;;;2.63;1.92;;;13.30;99.90;;;;;;5053992;28;20205;-66
2023/09/25 06:46:32;;;;;;;2.60;1.80;;;13.30;99.90;;;;;;5038688;28;20181;-66
2023/09/25 06:48:59;;;;;;;2.65;1.70;;;13.40;99.90;;;;;;5042824;28;20176;-66
2023/09/25 06:51:28;;;;;;;3.38;1.60;;;13.40;99.90;;;;;;5039948;28;20263;-65
2023/09/25 06:53:56;;;;;;;2.60;1.83;;;13.50;99.90;;;;;;5054912;28;20277;-66
2023/09/25 06:56:22;;;;;;;2.92;2.00;;;13.50;99.90;;;;;;5042838;28;20170;-66
2023/09/25 06:58:48;;;;;;;2.70;1.70;;;13.50;99.90;;;;;;5034479;28;20312;-66
2023/09/25 07:01:14;;;;;;;2.63;1.90;;;13.60;99.90;;;;;;5036152;28;20282;-65
2023/09/25 07:03:40;;;;;;;2.50;1.73;;;13.70;99.90;;;;;;5037226;28;20207;-65
2023/09/25 07:06:05;;;;;;;2.42;1.42;;;13.80;99.90;;;;;;5053500;28;20564;-66
2023/09/25 07:08:33;;;;;;;2.30;1.80;;;13.80;99.90;;;;;;5050121;28;20170;-66
2023/09/25 07:10:59;;;;;;;2.53;1.52;;;13.90;99.90;;;;;;5037032;28;20228;-66
2023/09/25 07:13:25;;;;;;;3.35;1.80;;;13.90;99.90;;;;;;5033434;28;20178;-67
2023/09/25 07:15:53;;;;;;;4.43;2.40;;;14.00;99.90;;;;;;5035331;28;20212;-66
2023/09/25 07:18:19;;;;;;;1.65;1.42;;;14.10;99.90;;;;;;5036967;28;20260;-66
2023/09/25 07:20:52;;;;;;;2.75;1.95;;;14.20;99.90;;;;;;5038990;28;21061;-66
2023/09/25 07:23:17;;;;;;;3.53;1.60;;;14.20;99.90;;;;;;5065530;28;20220;-66
2023/09/25 07:25:43;;;;;;;2.97;1.50;;;14.30;99.90;;;;;;5044970;28;21152;-66
2023/09/25 07:28:09;;;;;;;3.05;1.58;;;14.40;99.90;;;;;;5036857;28;20288;-66
2023/09/25 07:30:34;;;;;;;2.67;1.55;;;14.50;99.90;;;;;;5036016;28;20174;-67
2023/09/25 07:33:02;;;;;;;1.60;1.50;;;14.60;99.90;;;;;;5036225;28;20300;-66
2023/09/25 07:35:28;;;;;;;2.88;1.60;;;14.60;99.90;;;;;;5057007;28;20232;-66
2023/09/25 07:37:54;;;;;;;2.42;1.50;;;14.70;99.90;;;;;;5036221;28;20220;-67
2023/09/25 07:40:20;;;;;;;1.75;1.33;;;14.80;99.90;;;;;;5039689;28;20197;-68
2023/09/25 07:42:46;;;;;;;3.40;1.50;;;14.90;99.90;;;;;;5037600;28;20570;-67
2023/09/25 07:45:22;;;;;;;2.53;1.55;;;15.00;99.90;;;;;;5039208;28;20201;-66
2023/09/25 07:47:52;;;;;;;2.50;1.73;;;15.10;99.90;;;;;;5037008;28;20180;-65
2023/09/25 07:50:19;;;;;;;2.25;1.50;;;15.10;99.90;;;;;;5033977;28;20255;-66
2023/09/25 07:52:45;;;;;;;1.85;1.35;;;15.20;99.90;;;;;;5034216;28;20174;-66
2023/09/25 07:55:13;;;;;;;1.60;1.50;;;15.30;99.90;;;;;;5036384;28;20204;-66
2023/09/25 07:57:43;;;;;;;2.35;1.48;;;15.40;99.90;;;;;;5065265;28;20185;-65
2023/09/25 08:00:36;;;;;;;1.88;1.50;;;15.50;99.90;;;;;;5047172;28;20196;-65
2023/09/25 08:02:56;;;;;;;2.13;1.48;;;15.60;99.90;;;;;;5052964;28;20250;-65
2023/09/25 08:05:22;;;;;;;2.58;1.90;;;15.70;99.90;;;;;;5036030;28;20245;-67
2023/09/25 08:07:52;;;;;;;2.35;1.75;;;15.80;99.90;;;;;;5036829;28;20157;-66
2023/09/25 08:10:18;;;;;;;2.00;1.60;;;15.90;99.90;;;;;;5055660;28;20165;-67
2023/09/25 08:12:47;;;;;;;1.77;1.30;;;16.00;99.90;;;;;;5036988;28;20268;-67
2023/09/25 08:15:13;;;;;;;2.30;1.70;;;16.10;99.90;;;;;;5035958;28;20184;-66
2023/09/25 08:17:43;;;;;;;2.30;1.40;;;16.20;99.90;;;;;;5036949;28;20288;-66
2023/09/25 08:20:20;;;;;;;1.65;1.40;;;16.30;99.90;;;;;;5033851;28;20186;-66
2023/09/25 08:22:54;;;;;;;2.70;1.23;;;16.40;99.90;;;;;;5036023;28;20223;-67
2023/09/25 08:25:20;;;;;;;3.03;1.50;;;16.50;99.90;;;;;;5037492;28;20190;-66
2023/09/25 08:27:48;;;;;;;2.45;1.30;;;16.60;99.90;;;;;;5040259;28;20208;-66
2023/09/25 08:30:16;;;;;;;3.92;1.60;;;16.70;99.90;;;;;;5040098;28;20216;-66
2023/09/25 08:32:42;;;;;;;2.72;1.35;;;16.80;99.90;;;;;;5039666;28;20262;-67
2023/09/25 08:35:10;;;;;;;2.15;1.30;;;16.90;99.90;;;;;;5043273;28;20192;-67
2023/09/25 08:37:37;;;;;;;2.13;1.38;;;17.00;99.90;;;;;;5037802;28;20195;-68
2023/09/25 08:40:06;;;;;;;2.22;1.40;;;17.10;99.90;;;;;;5039531;28;20269;-68
2023/09/25 08:42:32;;;;;;;1.77;1.27;;;17.30;99.90;;;;;;5061055;28;20229;-67
2023/09/25 08:45:03;;;;;;;2.42;1.30;;;17.40;99.90;;;;;;5040212;28;20240;-67
2023/09/25 08:47:34;;;;;;;2.92;1.50;;;17.50;99.90;;;;;;5040710;28;20211;-66
2023/09/25 08:50:02;;;;;;;2.10;1.17;;;17.60;99.90;;;;;;5039679;28;20231;-65
2023/09/25 08:52:29;;;;;;;2.33;1.38;;;17.70;99.90;;;;;;5035505;28;20247;-66
2023/09/25 08:54:59;;;;;;;2.83;1.30;;;17.80;99.90;;;;;;5039736;28;20177;-68
2023/09/25 08:57:24;;;;;;;1.98;1.38;;;17.90;99.90;;;;;;5072653;28;20181;-67
2023/09/25 08:59:55;;;;;;;1.98;1.27;;;18.00;99.90;;;;;;5073139;28;20173;-69
2023/09/25 09:02:21;;;;;;;3.45;1.83;;;18.10;99.90;;;;;;5072768;28;20208;-68
2023/09/25 09:04:47;;;;;;;1.63;1.50;;;18.20;99.90;;;;;;5040226;28;20169;-67
2023/09/25 09:07:14;;;;;;;2.40;1.38;;;18.30;99.90;;;;;;5040267;28;20256;-67
2023/09/25 09:09:41;;;;;;;1.27;1.10;;;18.40;99.90;;;;;;5042603;28;20177;-66
2023/09/25 09:12:09;;;;;;;5.00;1.40;;;18.50;99.90;;;;;;5038871;28;20201;-67
2023/09/25 09:14:43;;;;;;;2.13;1.35;;;18.60;99.90;;;;;;5036709;28;20186;-68
2023/09/25 09:17:10;;;;;;;2.05;1.30;;;18.70;99.90;;;;;;5039778;28;20212;-67
2023/09/25 09:19:47;;;;;;;1.90;1.33;;;18.70;99.90;;;;;;5038563;28;20177;-67
2023/09/25 09:22:16;;;;;;;1.83;1.42;;;18.80;99.90;;;;;;5057896;28;20276;-67
2023/09/25 09:24:45;;;;;;;2.20;1.58;;;18.90;99.90;;;;;;5036041;28;20174;-68
2023/09/25 09:27:17;;;;;;;2.42;1.42;;;19.00;99.90;;;;;;5036848;28;20173;-66
2023/09/25 09:29:43;;;;;;;2.13;1.42;;;19.10;99.90;;;;;;5039141;28;20161;-67
2023/09/25 09:32:10;;;;;;;2.00;1.35;;;19.20;99.90;;;;;;5038974;28;20181;-68
2023/09/25 09:34:39;;;;;;;2.65;1.70;;;19.50;99.90;;;;;;5070918;28;20196;-68
2023/09/25 09:37:08;;;;;;;3.10;1.63;;;20.00;99.90;;;;;;5039802;28;20201;-68
2023/09/25 09:39:34;;;;;;;1.63;1.23;;;20.60;99.90;;;;;;5039465;28;20221;-67
2023/09/25 09:42:05;;;;;;;2.90;1.60;;;21.30;99.90;;;;;;5039169;28;20197;-68
2023/09/25 09:44:35;;;;;;;2.65;1.80;;;21.80;99.90;;;;;;5035552;28;20190;-68
2023/09/25 09:47:04;;;;;;;2.97;1.50;;;22.20;99.90;;;;;;5039026;28;20381;-68
2023/09/25 09:49:35;;;;;;;2.25;1.30;;;22.60;99.90;;;;;;5037702;28;20452;-67
2023/09/25 09:52:02;;;;;;;1.45;1.00;;;23.00;99.90;;;;;;5026173;28;20192;-68
2023/09/25 09:54:32;;;;;;;2.20;1.20;;;23.40;99.90;;;;;;5039206;28;20348;-68
2023/09/25 09:57:01;;;;;;;1.10;0.98;;;23.70;99.90;;;;;;5038465;28;20204;-67
2023/09/25 09:59:29;;;;;;;1.05;0.95;;;24.10;99.90;;;;;;5038794;28;20218;-68
2023/09/25 10:01:56;;;;;;;1.80;1.23;;;24.30;99.90;;;;;;5078111;28;20202;-68
2023/09/25 10:04:23;;;;;;;1.63;1.10;;;24.60;99.90;;;;;;5038763;28;20319;-68
2023/09/25 10:06:51;;;;;;;3.42;1.17;;;24.80;99.90;;;;;;5038108;28;20250;-68
2023/09/25 10:09:20;;;;;;;2.47;1.48;;;25.10;99.90;;;;;;5071012;28;20193;-68
2023/09/25 10:11:51;;;;;;;1.90;1.15;;;25.20;99.90;;;;;;5038913;28;20201;-67
2023/09/25 10:14:29;;;;;;;1.75;1.30;;;25.40;99.90;;;;;;5035352;28;20413;-67
2023/09/25 10:17:01;;;;;;;1.90;1.10;;;25.50;99.90;;;;;;5035041;28;20201;-67
2023/09/25 10:19:36;;;;;;;2.28;1.30;;;25.70;99.90;;;;;;5037852;28;20179;-66
2023/09/25 10:22:15;;;;;;;1.58;0.93;;;25.80;98.70;;;;;;5038496;28;20192;-66
2023/09/25 10:24:42;;;;;;;1.42;1.00;;;25.80;99.90;;;;;;5037478;28;20194;-66
2023/09/25 10:27:11;;;;;;;3.25;1.30;;;25.80;99.90;;;;;;5037652;28;20267;-67
2023/09/25 10:29:38;;;;;;;2.35;1.80;;;25.80;99.90;;;;;;5042239;28;20250;-66
2023/09/25 10:32:14;;;;;;;3.67;1.60;;;25.70;99.90;;;;;;5038232;28;20220;-68
2023/09/25 10:34:42;;;;;;;2.28;1.40;;;25.70;99.90;;;;;;5020510;28;20208;-67
2023/09/25 10:37:08;;;;;;;1.58;1.20;;;25.50;99.90;;;;;;5037514;28;20242;-68
2023/09/25 10:39:35;;;;;;;2.10;1.20;;;25.50;99.90;;;;;;5069933;28;20221;-68
2023/09/25 10:42:14;;;;;;;1.70;1.20;;;25.40;99.90;;;;;;5038819;28;20274;-67
2023/09/25 10:44:42;;;;;;;1.98;1.70;;;25.40;99.90;;;;;;5037293;28;20240;-67
2023/09/25 10:47:09;;;;;;;2.75;1.33;;;25.40;99.90;;;;;;5038123;28;20269;-67
2023/09/25 10:49:42;;;;;;;2.05;1.42;;;25.30;99.90;;;;;;5038275;28;20173;-67
2023/09/25 10:52:08;;;;;;;2.65;1.58;;;25.20;99.90;;;;;;5036526;28;20188;-68
2023/09/25 10:54:36;;;;;;;1.80;1.33;;;25.20;99.90;;;;;;5040383;28;20271;-68
2023/09/25 10:57:05;;;;;;;2.10;1.50;;;25.20;99.90;;;;;;5045357;28;20264;-67
2023/09/25 10:59:30;;;;;;;1.90;1.20;;;25.20;99.90;;;;;;5036671;28;20181;-67
2023/09/25 11:01:56;;;;;;;2.20;1.33;;;25.20;99.90;;;;;;5037431;28;20258;-68
2023/09/25 11:04:21;;;;;;;2.30;1.30;;;25.20;99.90;;;;;;5038406;28;20185;-66
2023/09/25 11:06:50;;;;;;;2.85;1.63;;;25.30;99.90;;;;;;5036701;28;20206;-66
2023/09/25 11:09:19;;;;;;;2.70;1.40;;;25.30;99.90;;;;;;5065750;28;20177;-66
2023/09/25 11:11:47;;;;;;;1.58;1.08;;;25.30;99.90;;;;;;5037382;28;20246;-67
2023/09/25 11:14:16;;;;;;;1.58;1.23;;;25.30;99.90;;;;;;5038649;28;20169;-67
2023/09/25 11:16:42;;;;;;;3.13;1.40;;;25.40;99.90;;;;;;5018162;28;20202;-72
2023/09/25 11:19:18;;;;;;;1.80;1.33;;;25.50;99.90;;;;;;5067405;28;20177;-74
2023/09/25 11:21:49;;;;;;;2.45;1.50;;;25.50;99.90;;;;;;5036709;28;20280;-74
2023/09/25 11:24:15;;;;;;;1.90;1.27;;;25.50;99.90;;;;;;5036765;28;20232;-74
2023/09/25 11:26:42;;;;;;;1.85;1.20;;;25.60;99.90;;;;;;5039617;28;20166;-70
2023/09/25 11:29:13;;;;;;;2.55;1.50;;;25.70;99.90;;;;;;5043859;28;20265;-69
2023/09/25 11:31:39;;;;;;;1.55;1.35;;;25.80;99.90;;;;;;5036398;28;20184;-75
2023/09/25 11:34:09;;;;;;;1.83;1.45;;;25.80;99.90;;;;;;5037127;28;20165;-74
2023/09/25 11:36:42;;;;;;;3.15;1.30;;;25.90;99.90;;;;;;5037464;28;20189;-75
2023/09/25 11:39:22;;;;;;;4.93;1.35;;;25.90;99.90;;;;;;5035921;28;20448;-73
2023/09/25 11:41:50;;;;;;;1.67;1.25;;;25.90;99.10;;;;;;5037103;28;20200;-75
2023/09/25 11:44:16;;;;;;;1.75;1.20;;;25.80;99.90;;;;;;5037276;28;20205;-75
2023/09/25 11:46:42;;;;;;;2.63;1.25;;;25.80;99.90;;;;;;5036952;28;20271;-73
2023/09/25 11:49:12;;;;;;;1.65;1.10;;;25.80;99.90;;;;;;5038586;28;20177;-72
2023/09/25 11:51:37;;;;;;;1.40;1.02;;;25.80;99.90;;;;;;5054299;28;20540;-73
2023/09/25 11:54:03;;;;;;;1.73;1.40;;;25.90;99.90;;;;;;5037865;28;20267;-73
2023/09/25 11:56:29;;;;;;;1.70;1.33;;;26.00;99.90;;;;;;5038126;28;20347;-72
2023/09/25 11:58:55;;;;;;;1.75;1.38;;;26.10;99.90;;;;;;5038188;28;20249;-74
2023/09/25 12:01:20;;;;;;;1.60;1.05;;;26.20;99.90;;;;;;5040468;28;20262;-73
2023/09/25 12:03:46;;;;;;;2.45;1.10;;;26.30;99.90;;;;;;5052093;28;20200;-71
2023/09/25 12:06:12;;;;;;;2.05;1.48;;;26.40;99.90;;;;;;5053388;28;20173;-74
2023/09/25 12:08:40;;;;;;;3.22;1.40;;;26.50;99.90;;;;;;5044122;28;20174;-74
2023/09/25 12:11:05;;;;;;;2.30;1.30;;;26.50;99.90;;;;;;5040076;28;20177;-72
2023/09/25 12:13:31;;;;;;;1.50;1.20;;;26.50;99.90;;;;;;5040310;28;20204;-75
2023/09/25 12:15:56;;;;;;;1.58;1.13;;;26.60;99.90;;;;;;5072582;28;20189;-73
2023/09/25 12:18:24;;;;;;;1.90;1.30;;;26.70;99.90;;;;;;5080959;28;20183;-72
2023/09/25 12:20:53;;;;;;;1.70;1.20;;;26.70;99.90;;;;;;5039671;28;20277;-73
2023/09/25 12:23:19;;;;;;;2.13;0.98;;;26.80;98.90;;;;;;5073569;28;20208;-73
2023/09/25 12:25:47;;;;;;;1.83;1.30;;;26.80;99.60;;;;;;5040540;28;20272;-73
2023/09/25 12:28:13;;;;;;;2.08;1.42;;;26.80;98.70;;;;;;5069842;28;20238;-75
2023/09/25 12:30:38;;;;;;;1.52;1.20;;;26.90;99.90;;;;;;5040093;28;20197;-74
2023/09/25 12:33:05;;;;;;;1.60;1.30;;;26.80;98.50;;;;;;5043449;28;20181;-74
2023/09/25 12:35:31;;;;;;;1.63;1.20;;;26.90;99.20;;;;;;5037713;28;20212;-71
2023/09/25 12:37:56;;;;;;;1.40;1.00;;;26.90;99.90;;;;;;5039529;28;20193;-73
2023/09/25 12:40:22;;;;;;;2.58;1.27;;;26.90;99.90;;;;;;5041482;28;20227;-71
2023/09/25 12:42:50;;;;;;;2.25;1.27;;;26.90;98.80;;;;;;5040610;28;20244;-74
2023/09/25 12:45:16;;;;;;;1.65;1.20;;;26.90;98.50;;;;;;5040369;28;20265;-73
2023/09/25 12:47:44;;;;;;;2.40;1.50;;;26.90;98.10;;;;;;5038172;28;20189;-67
2023/09/25 12:50:12;;;;;;;2.35;1.20;;;26.80;96.70;;;;;;5072788;28;20416;-69
2023/09/25 12:52:40;;;;;;;2.00;1.27;;;26.70;97.70;;;;;;5042667;28;20357;-71
2023/09/25 12:55:06;;;;;;;3.00;1.17;;;26.70;97.60;;;;;;5043630;28;20226;-70